sensor_id;sensor_type;location;lat;lon;timestamp;pressure;altitude;pressure_sealevel;temperature;humidity
61757;BME280;57225;61.460;24.060;2022-07-25T00:01:36;99745.97;;;13.40;97.66
61757;BME280;57225;61.460;24.060;2022-07-25T00:04:20;99754.44;;;13.37;98.13
61757;BME280;57225;61.460;24.060;2022-07-25T00:07:05;99756.84;;;13.35;98.45
61757;BME280;57225;61.460;24.060;2022-07-25T00:09:49;99738.28;;;13.24;98.54
61757;BME280;57225;61.460;24.060;2022-07-25T00:12:35;99752.19;;;13.28;98.45
61757;BME280;57225;61.460;24.060;2022-07-25T00:15:20;99751.50;;;13.24;98.53
61757;BME280;57225;61.460;24.060;2022-07-25T00:18:04;99752.84;;;13.16;98.72
61757;BME280;57225;61.460;24.060;2022-07-25T00:20:49;99755.28;;;13.14;98.62
61757;BME280;57225;61.460;24.060;2022-07-25T00:23:34;99752.53;;;13.10;98.98
61757;BME280;57225;61.460;24.060;2022-07-25T00:26:18;99755.75;;;13.09;99.12
61757;BME280;57225;61.460;24.060;2022-07-25T00:29:03;99739.91;;;13.02;99.48
61757;BME280;57225;61.460;24.060;2022-07-25T00:31:47;99752.66;;;13.03;99.51
61757;BME280;57225;61.460;24.060;2022-07-25T00:34:31;99749.50;;;13.01;99.82
61757;BME280;57225;61.460;24.060;2022-07-25T00:37:16;99737.72;;;12.90;100.00
61757;BME280;57225;61.460;24.060;2022-07-25T00:40:01;99742.84;;;12.95;99.98
61757;BME280;57225;61.460;24.060;2022-07-25T00:42:46;99739.66;;;12.93;100.00
61757;BME280;57225;61.460;24.060;2022-07-25T00:45:31;99743.25;;;12.94;100.00
61757;BME280;57225;61.460;24.060;2022-07-25T00:48:15;99744.03;;;12.94;100.00
61757;BME280;57225;61.460;24.060;2022-07-25T00:50:59;99738.47;;;12.94;99.85
61757;BME280;57225;61.460;24.060;2022-07-25T00:53:44;99736.16;;;12.89;100.00
61757;BME280;57225;61.460;24.060;2022-07-25T00:56:29;99739.31;;;12.91;100.00
61757;BME280;57225;61.460;24.060;2022-07-25T00:59:13;99734.63;;;12.84;100.00
61757;BME280;57225;61.460;24.060;2022-07-25T01:01:59;99727.16;;;12.78;100.00
61757;BME280;57225;61.460;24.060;2022-07-25T01:04:43;99735.41;;;12.85;100.00
61757;BME280;57225;61.460;24.060;2022-07-25T01:07:29;99729.47;;;12.83;100.00
61757;BME280;57225;61.460;24.060;2022-07-25T01:10:14;99736.28;;;12.82;100.00
61757;BME280;57225;61.460;24.060;2022-07-25T01:12:58;99739.44;;;12.84;100.00
61757;BME280;57225;61.460;24.060;2022-07-25T01:15:46;99727.09;;;12.81;100.00
61757;BME280;57225;61.460;24.060;2022-07-25T01:18:30;99736.28;;;12.82;100.00
61757;BME280;57225;61.460;24.060;2022-07-25T01:21:15;99729.13;;;12.81;100.00
61757;BME280;57225;61.460;24.060;2022-07-25T01:24:02;99732.31;;;12.79;100.00
61757;BME280;57225;61.460;24.060;2022-07-25T01:26:46;99735.91;;;12.80;100.00
61757;BME280;57225;61.460;24.060;2022-07-25T01:29:33;99733.19;;;12.76;100.00
61757;BME280;57225;61.460;24.060;2022-07-25T01:32:17;99728.44;;;12.73;100.00
61757;BME280;57225;61.460;24.060;2022-07-25T01:35:03;99733.66;;;12.71;100.00
61757;BME280;57225;61.460;24.060;2022-07-25T01:37:47;99731.31;;;12.70;100.00
61757;BME280;57225;61.460;24.060;2022-07-25T01:40:31;99735.63;;;12.74;100.00
61757;BME280;57225;61.460;24.060;2022-07-25T01:43:15;99738.34;;;12.78;100.00
61757;BME280;57225;61.460;24.060;2022-07-25T01:46:00;99725.59;;;12.77;100.00
61757;BME280;57225;61.460;24.060;2022-07-25T01:48:44;99726.03;;;12.75;100.00
61757;BME280;57225;61.460;24.060;2022-07-25T01:51:29;99730.69;;;12.82;100.00
61757;BME280;57225;61.460;24.060;2022-07-25T01:54:13;99732.69;;;12.81;100.00
61757;BME280;57225;61.460;24.060;2022-07-25T01:56:57;99731.50;;;12.82;100.00
61757;BME280;57225;61.460;24.060;2022-07-25T01:59:41;99731.03;;;12.84;100.00
61757;BME280;57225;61.460;24.060;2022-07-25T02:02:26;99727.91;;;12.82;100.00
61757;BME280;57225;61.460;24.060;2022-07-25T02:05:12;99724.31;;;12.81;100.00
61757;BME280;57225;61.460;24.060;2022-07-25T02:07:57;99725.94;;;12.79;100.00
61757;BME280;57225;61.460;24.060;2022-07-25T02:10:42;99729.91;;;12.81;99.83
61757;BME280;57225;61.460;24.060;2022-07-25T02:13:26;99732.75;;;12.78;100.00
61757;BME280;57225;61.460;24.060;2022-07-25T02:16:11;99741.88;;;12.82;100.00
61757;BME280;57225;61.460;24.060;2022-07-25T02:18:56;99740.28;;;12.81;100.00
61757;BME280;57225;61.460;24.060;2022-07-25T02:21:40;99751.00;;;12.86;99.47
61757;BME280;57225;61.460;24.060;2022-07-25T02:24:25;99749.91;;;12.80;98.98
61757;BME280;57225;61.460;24.060;2022-07-25T02:27:09;99745.03;;;12.84;97.98
61757;BME280;57225;61.460;24.060;2022-07-25T02:29:55;99745.81;;;12.84;97.26
61757;BME280;57225;61.460;24.060;2022-07-25T02:32:39;99747.81;;;12.84;97.01
61757;BME280;57225;61.460;24.060;2022-07-25T02:35:26;99739.81;;;12.86;97.14
61757;BME280;57225;61.460;24.060;2022-07-25T02:38:10;99731.03;;;12.84;97.49
61757;BME280;57225;61.460;24.060;2022-07-25T02:41:02;99742.22;;;12.84;97.61
61757;BME280;57225;61.460;24.060;2022-07-25T02:43:46;99745.47;;;12.82;97.75
61757;BME280;57225;61.460;24.060;2022-07-25T02:46:31;99743.47;;;12.83;97.68
61757;BME280;57225;61.460;24.060;2022-07-25T02:49:15;99743.09;;;12.81;97.61
61757;BME280;57225;61.460;24.060;2022-07-25T02:52:00;99735.53;;;12.78;97.74
61757;BME280;57225;61.460;24.060;2022-07-25T02:54:44;99739.94;;;12.79;98.01
61757;BME280;57225;61.460;24.060;2022-07-25T02:57:29;99742.72;;;12.79;97.72
61757;BME280;57225;61.460;24.060;2022-07-25T03:00:14;99745.88;;;12.81;98.53
61757;BME280;57225;61.460;24.060;2022-07-25T03:02:59;99753.41;;;12.84;98.23
61757;BME280;57225;61.460;24.060;2022-07-25T03:05:43;99756.53;;;12.89;97.98
61757;BME280;57225;61.460;24.060;2022-07-25T03:08:28;99749.78;;;12.87;97.55
61757;BME280;57225;61.460;24.060;2022-07-25T03:11:12;99748.06;;;12.93;97.25
61757;BME280;57225;61.460;24.060;2022-07-25T03:13:57;99746.06;;;12.94;97.20
61757;BME280;57225;61.460;24.060;2022-07-25T03:16:41;99755.81;;;13.05;97.20
61757;BME280;57225;61.460;24.060;2022-07-25T03:19:25;99754.59;;;13.06;97.22
61757;BME280;57225;61.460;24.060;2022-07-25T03:22:09;99751.19;;;13.18;97.47
61757;BME280;57225;61.460;24.060;2022-07-25T03:24:54;99758.59;;;13.28;97.45
61757;BME280;57225;61.460;24.060;2022-07-25T03:27:38;99755.88;;;13.45;97.50
61757;BME280;57225;61.460;24.060;2022-07-25T03:30:24;99764.59;;;13.66;97.55
61757;BME280;57225;61.460;24.060;2022-07-25T03:33:08;99756.91;;;13.90;98.39
61757;BME280;57225;61.460;24.060;2022-07-25T03:35:53;99758.50;;;14.07;99.09
61757;BME280;57225;61.460;24.060;2022-07-25T03:38:39;99760.81;;;14.29;99.12
61757;BME280;57225;61.460;24.060;2022-07-25T03:41:23;99761.63;;;14.45;98.83
61757;BME280;57225;61.460;24.060;2022-07-25T03:44:07;99760.63;;;14.68;99.17
61757;BME280;57225;61.460;24.060;2022-07-25T03:46:52;99757.22;;;15.06;98.34
61757;BME280;57225;61.460;24.060;2022-07-25T03:49:36;99773.59;;;15.52;95.60
61757;BME280;57225;61.460;24.060;2022-07-25T03:52:21;99768.50;;;15.76;93.05
61757;BME280;57225;61.460;24.060;2022-07-25T03:55:06;99768.69;;;15.69;93.53
61757;BME280;57225;61.460;24.060;2022-07-25T03:57:51;99782.28;;;15.58;95.07
61757;BME280;57225;61.460;24.060;2022-07-25T04:00:36;99767.44;;;15.57;94.90
61757;BME280;57225;61.460;24.060;2022-07-25T04:03:20;99760.59;;;15.58;95.13
61757;BME280;57225;61.460;24.060;2022-07-25T04:06:04;99770.59;;;15.59;95.62
61757;BME280;57225;61.460;24.060;2022-07-25T04:08:49;99766.47;;;15.77;94.21
61757;BME280;57225;61.460;24.060;2022-07-25T04:11:34;99764.59;;;15.99;93.06
61757;BME280;57225;61.460;24.060;2022-07-25T04:14:19;99758.84;;;16.15;91.91
61757;BME280;57225;61.460;24.060;2022-07-25T04:17:03;99759.06;;;16.33;90.16
61757;BME280;57225;61.460;24.060;2022-07-25T04:19:48;99762.66;;;16.46;88.12
61757;BME280;57225;61.460;24.060;2022-07-25T04:22:32;99755.22;;;16.53;87.75
61757;BME280;57225;61.460;24.060;2022-07-25T04:25:16;99744.56;;;16.47;88.14
61757;BME280;57225;61.460;24.060;2022-07-25T04:28:01;99746.78;;;16.53;87.57
61757;BME280;57225;61.460;24.060;2022-07-25T04:30:47;99747.91;;;16.55;87.86
61757;BME280;57225;61.460;24.060;2022-07-25T04:33:31;99736.53;;;16.59;87.80
61757;BME280;57225;61.460;24.060;2022-07-25T04:36:16;99741.38;;;16.71;85.81
61757;BME280;57225;61.460;24.060;2022-07-25T04:39:00;99744.53;;;16.73;85.36
61757;BME280;57225;61.460;24.060;2022-07-25T04:41:44;99743.75;;;16.72;85.37
61757;BME280;57225;61.460;24.060;2022-07-25T04:44:28;99740.47;;;16.74;85.58
61757;BME280;57225;61.460;24.060;2022-07-25T04:47:16;99729.75;;;16.81;83.89
61757;BME280;57225;61.460;24.060;2022-07-25T04:50:00;99740.88;;;16.85;84.02
61757;BME280;57225;61.460;24.060;2022-07-25T04:52:45;99743.53;;;17.01;83.35
61757;BME280;57225;61.460;24.060;2022-07-25T04:55:29;99743.50;;;17.36;82.79
61757;BME280;57225;61.460;24.060;2022-07-25T04:58:15;99746.53;;;19.65;73.32
61757;BME280;57225;61.460;24.060;2022-07-25T05:00:59;99745.97;;;22.83;60.02
61757;BME280;57225;61.460;24.060;2022-07-25T05:03:44;99755.44;;;24.93;53.04
61757;BME280;57225;61.460;24.060;2022-07-25T05:06:28;99756.22;;;26.69;48.41
61757;BME280;57225;61.460;24.060;2022-07-25T05:09:13;99763.97;;;27.95;45.91
61757;BME280;57225;61.460;24.060;2022-07-25T05:11:57;99764.59;;;28.48;42.97
61757;BME280;57225;61.460;24.060;2022-07-25T05:14:41;99768.00;;;28.47;41.76
61757;BME280;57225;61.460;24.060;2022-07-25T05:17:26;99758.97;;;28.07;42.01
61757;BME280;57225;61.460;24.060;2022-07-25T05:20:11;99748.19;;;27.83;43.77
61757;BME280;57225;61.460;24.060;2022-07-25T05:22:55;99739.72;;;27.67;44.76
61757;BME280;57225;61.460;24.060;2022-07-25T05:25:39;99738.91;;;27.19;46.34
61757;BME280;57225;61.460;24.060;2022-07-25T05:28:24;99735.72;;;26.65;47.73
61757;BME280;57225;61.460;24.060;2022-07-25T05:31:08;99734.22;;;26.09;49.42
61757;BME280;57225;61.460;24.060;2022-07-25T05:33:52;99726.59;;;25.44;51.03
61757;BME280;57225;61.460;24.060;2022-07-25T05:36:39;99723.50;;;24.83;51.92
61757;BME280;57225;61.460;24.060;2022-07-25T05:39:23;99728.69;;;23.79;54.87
61757;BME280;57225;61.460;24.060;2022-07-25T05:42:09;99719.75;;;22.74;58.73
61757;BME280;57225;61.460;24.060;2022-07-25T05:44:53;99723.13;;;22.08;61.19
61757;BME280;57225;61.460;24.060;2022-07-25T05:47:38;99710.22;;;21.34;62.89
61757;BME280;57225;61.460;24.060;2022-07-25T05:50:22;99713.88;;;21.10;65.26
61757;BME280;57225;61.460;24.060;2022-07-25T05:53:06;99707.97;;;21.38;66.96
61757;BME280;57225;61.460;24.060;2022-07-25T05:55:51;99726.19;;;21.60;63.64
61757;BME280;57225;61.460;24.060;2022-07-25T05:58:35;99726.09;;;21.84;64.28
61757;BME280;57225;61.460;24.060;2022-07-25T06:01:24;99717.88;;;22.01;62.86
61757;BME280;57225;61.460;24.060;2022-07-25T06:04:08;99712.47;;;22.18;63.57
61757;BME280;57225;61.460;24.060;2022-07-25T06:06:52;99728.09;;;22.28;61.48
61757;BME280;57225;61.460;24.060;2022-07-25T06:09:37;99727.06;;;22.45;61.84
61757;BME280;57225;61.460;24.060;2022-07-25T06:12:21;99725.22;;;22.42;61.21
61757;BME280;57225;61.460;24.060;2022-07-25T06:15:06;99732.56;;;22.49;60.79
61757;BME280;57225;61.460;24.060;2022-07-25T06:17:50;99725.88;;;22.52;61.03
61757;BME280;57225;61.460;24.060;2022-07-25T06:20:35;99723.75;;;22.67;61.27
61757;BME280;57225;61.460;24.060;2022-07-25T06:23:19;99723.22;;;22.83;60.82
61757;BME280;57225;61.460;24.060;2022-07-25T06:26:06;99725.78;;;23.02;60.72
61757;BME280;57225;61.460;24.060;2022-07-25T06:28:51;99723.63;;;23.17;59.88
61757;BME280;57225;61.460;24.060;2022-07-25T06:31:36;99735.56;;;23.21;58.65
61757;BME280;57225;61.460;24.060;2022-07-25T06:34:20;99720.25;;;22.93;58.47
61757;BME280;57225;61.460;24.060;2022-07-25T06:37:05;99731.03;;;23.09;63.04
61757;BME280;57225;61.460;24.060;2022-07-25T06:39:49;99733.44;;;23.16;58.42
61757;BME280;57225;61.460;24.060;2022-07-25T06:42:39;99741.06;;;23.24;60.29
61757;BME280;57225;61.460;24.060;2022-07-25T06:45:25;99751.75;;;23.35;61.12
61757;BME280;57225;61.460;24.060;2022-07-25T06:48:14;99745.00;;;23.53;60.85
61757;BME280;57225;61.460;24.060;2022-07-25T06:50:59;99733.72;;;23.90;60.70
61757;BME280;57225;61.460;24.060;2022-07-25T06:53:44;99729.41;;;24.31;57.42
61757;BME280;57225;61.460;24.060;2022-07-25T06:56:28;99725.34;;;24.43;53.76
61757;BME280;57225;61.460;24.060;2022-07-25T06:59:14;99713.53;;;24.19;50.50
61757;BME280;57225;61.460;24.060;2022-07-25T07:01:58;99717.47;;;23.96;55.15
61757;BME280;57225;61.460;24.060;2022-07-25T07:04:43;99704.09;;;24.08;55.47
61757;BME280;57225;61.460;24.060;2022-07-25T07:07:27;99711.47;;;24.20;56.38
61757;BME280;57225;61.460;24.060;2022-07-25T07:10:12;99720.34;;;24.27;53.19
61757;BME280;57225;61.460;24.060;2022-07-25T07:13:07;99723.25;;;24.38;56.31
61757;BME280;57225;61.460;24.060;2022-07-25T07:15:52;99711.00;;;24.27;58.06
61757;BME280;57225;61.460;24.060;2022-07-25T07:18:37;99711.78;;;24.70;56.31
61757;BME280;57225;61.460;24.060;2022-07-25T07:21:21;99712.09;;;24.83;52.83
61757;BME280;57225;61.460;24.060;2022-07-25T07:24:06;99703.53;;;24.83;50.08
61757;BME280;57225;61.460;24.060;2022-07-25T07:26:51;99699.69;;;24.92;47.99
61757;BME280;57225;61.460;24.060;2022-07-25T07:29:35;99700.03;;;25.10;51.64
61757;BME280;57225;61.460;24.060;2022-07-25T07:32:19;99699.03;;;25.30;54.08
61757;BME280;57225;61.460;24.060;2022-07-25T07:35:04;99697.25;;;25.33;51.07
61757;BME280;57225;61.460;24.060;2022-07-25T07:37:48;99700.69;;;25.59;51.43
61757;BME280;57225;61.460;24.060;2022-07-25T07:40:32;99696.03;;;25.61;49.91
61757;BME280;57225;61.460;24.060;2022-07-25T07:43:17;99696.03;;;25.73;53.43
61757;BME280;57225;61.460;24.060;2022-07-25T07:46:01;99693.97;;;25.84;52.37
61757;BME280;57225;61.460;24.060;2022-07-25T07:48:46;99688.97;;;25.35;46.25
61757;BME280;57225;61.460;24.060;2022-07-25T07:51:30;99692.25;;;25.11;51.05
61757;BME280;57225;61.460;24.060;2022-07-25T07:54:16;99691.03;;;25.40;51.95
61757;BME280;57225;61.460;24.060;2022-07-25T07:57:19;99701.47;;;25.59;49.02
61757;BME280;57225;61.460;24.060;2022-07-25T08:00:04;99695.78;;;26.10;51.09
61757;BME280;57225;61.460;24.060;2022-07-25T08:02:51;99709.00;;;26.18;46.98
61757;BME280;57225;61.460;24.060;2022-07-25T08:05:41;99706.41;;;26.26;46.04
61757;BME280;57225;61.460;24.060;2022-07-25T08:08:27;99713.41;;;26.47;46.61
61757;BME280;57225;61.460;24.060;2022-07-25T08:11:12;99701.44;;;26.54;43.06
61757;BME280;57225;61.460;24.060;2022-07-25T08:13:56;99705.59;;;26.53;41.67
61757;BME280;57225;61.460;24.060;2022-07-25T08:16:40;99721.22;;;26.41;42.93
61757;BME280;57225;61.460;24.060;2022-07-25T08:19:24;99710.31;;;26.23;40.69
61757;BME280;57225;61.460;24.060;2022-07-25T08:22:09;99716.56;;;26.27;41.38
61757;BME280;57225;61.460;24.060;2022-07-25T08:24:53;99705.38;;;26.40;40.45
61757;BME280;57225;61.460;24.060;2022-07-25T08:27:38;99711.59;;;26.22;40.63
61757;BME280;57225;61.460;24.060;2022-07-25T08:30:22;99713.66;;;26.43;39.00
61757;BME280;57225;61.460;24.060;2022-07-25T08:33:08;99710.50;;;26.64;38.61
61757;BME280;57225;61.460;24.060;2022-07-25T08:35:54;99716.19;;;26.80;38.01
61757;BME280;57225;61.460;24.060;2022-07-25T08:38:39;99716.47;;;26.71;38.11
61757;BME280;57225;61.460;24.060;2022-07-25T08:41:23;99724.19;;;26.99;38.24
61757;BME280;57225;61.460;24.060;2022-07-25T08:44:08;99734.72;;;26.46;35.77
61757;BME280;57225;61.460;24.060;2022-07-25T08:46:53;99738.84;;;26.67;35.87
61757;BME280;57225;61.460;24.060;2022-07-25T08:49:37;99733.06;;;26.84;35.40
61757;BME280;57225;61.460;24.060;2022-07-25T08:52:22;99730.22;;;26.78;36.06
61757;BME280;57225;61.460;24.060;2022-07-25T08:55:09;99741.22;;;26.41;35.97
61757;BME280;57225;61.460;24.060;2022-07-25T08:57:54;99734.22;;;26.31;34.18
61757;BME280;57225;61.460;24.060;2022-07-25T09:00:39;99729.22;;;26.59;35.06
61757;BME280;57225;61.460;24.060;2022-07-25T09:03:25;99736.25;;;26.58;34.37
61757;BME280;57225;61.460;24.060;2022-07-25T09:06:17;99732.66;;;26.41;33.69
61757;BME280;57225;61.460;24.060;2022-07-25T09:09:02;99735.13;;;26.95;32.60
61757;BME280;57225;61.460;24.060;2022-07-25T09:11:48;99729.91;;;26.99;32.72
61757;BME280;57225;61.460;24.060;2022-07-25T09:14:41;99737.34;;;27.24;32.75
61757;BME280;57225;61.460;24.060;2022-07-25T09:17:26;99741.91;;;26.92;32.77
61757;BME280;57225;61.460;24.060;2022-07-25T09:20:10;99735.44;;;26.69;34.09
61757;BME280;57225;61.460;24.060;2022-07-25T09:22:55;99732.66;;;25.96;34.80
61757;BME280;57225;61.460;24.060;2022-07-25T09:25:41;99724.56;;;25.61;35.42
61757;BME280;57225;61.460;24.060;2022-07-25T09:28:25;99723.03;;;26.33;35.24
61757;BME280;57225;61.460;24.060;2022-07-25T09:31:10;99722.91;;;27.00;36.53
61757;BME280;57225;61.460;24.060;2022-07-25T09:33:55;99709.91;;;27.40;35.04
61757;BME280;57225;61.460;24.060;2022-07-25T09:36:54;99720.56;;;27.45;35.13
61757;BME280;57225;61.460;24.060;2022-07-25T09:42:29;99717.09;;;27.63;34.63
61757;BME280;57225;61.460;24.060;2022-07-25T09:45:16;99711.81;;;27.73;35.97
61757;BME280;57225;61.460;24.060;2022-07-25T09:48:03;99713.81;;;27.83;35.05
61757;BME280;57225;61.460;24.060;2022-07-25T09:50:48;99709.22;;;28.05;35.88
61757;BME280;57225;61.460;24.060;2022-07-25T09:53:33;99704.47;;;28.13;36.04
61757;BME280;57225;61.460;24.060;2022-07-25T09:56:18;99707.31;;;28.13;35.17
61757;BME280;57225;61.460;24.060;2022-07-25T09:59:03;99685.16;;;28.19;35.59
61757;BME280;57225;61.460;24.060;2022-07-25T10:01:55;99704.06;;;28.27;33.74
61757;BME280;57225;61.460;24.060;2022-07-25T10:07:50;99693.19;;;27.90;36.82
61757;BME280;57225;61.460;24.060;2022-07-25T10:10:38;99686.59;;;28.01;37.48
61757;BME280;57225;61.460;24.060;2022-07-25T10:13:32;99694.47;;;27.59;37.95
61757;BME280;57225;61.460;24.060;2022-07-25T10:16:22;99697.63;;;27.50;37.17
61757;BME280;57225;61.460;24.060;2022-07-25T10:19:06;99692.16;;;27.52;38.36
61757;BME280;57225;61.460;24.060;2022-07-25T10:21:54;99681.78;;;27.49;38.32
61757;BME280;57225;61.460;24.060;2022-07-25T10:24:43;99678.72;;;27.36;38.67
61757;BME280;57225;61.460;24.060;2022-07-25T10:27:28;99680.69;;;27.58;37.09
61757;BME280;57225;61.460;24.060;2022-07-25T10:30:24;99685.94;;;27.84;38.04
61757;BME280;57225;61.460;24.060;2022-07-25T10:33:17;99676.09;;;27.38;38.01
61757;BME280;57225;61.460;24.060;2022-07-25T10:36:05;99670.66;;;26.82;37.22
61757;BME280;57225;61.460;24.060;2022-07-25T10:38:54;99674.06;;;27.33;39.33
61757;BME280;57225;61.460;24.060;2022-07-25T10:41:40;99667.59;;;27.98;37.33
61757;BME280;57225;61.460;24.060;2022-07-25T10:44:27;99685.47;;;28.64;36.77
61757;BME280;57225;61.460;24.060;2022-07-25T10:47:16;99693.44;;;28.95;36.10
61757;BME280;57225;61.460;24.060;2022-07-25T10:50:01;99695.78;;;29.15;36.65
61757;BME280;57225;61.460;24.060;2022-07-25T10:52:58;99696.31;;;28.47;36.26
61757;BME280;57225;61.460;24.060;2022-07-25T10:56:02;99699.84;;;28.58;38.26
61757;BME280;57225;61.460;24.060;2022-07-25T10:58:57;99690.97;;;29.05;36.64
61757;BME280;57225;61.460;24.060;2022-07-25T11:01:41;99693.44;;;28.95;36.88
61757;BME280;57225;61.460;24.060;2022-07-25T11:04:27;99697.63;;;28.70;37.58
61757;BME280;57225;61.460;24.060;2022-07-25T11:07:14;99691.75;;;27.37;39.44
61757;BME280;57225;61.460;24.060;2022-07-25T11:10:01;99692.03;;;28.34;39.10
61757;BME280;57225;61.460;24.060;2022-07-25T11:12:47;99684.78;;;27.98;38.53
61757;BME280;57225;61.460;24.060;2022-07-25T11:15:34;99686.47;;;27.82;40.01
61757;BME280;57225;61.460;24.060;2022-07-25T11:18:29;99688.72;;;27.13;40.28
61757;BME280;57225;61.460;24.060;2022-07-25T11:21:14;99703.25;;;27.20;41.45
61757;BME280;57225;61.460;24.060;2022-07-25T11:23:58;99686.16;;;26.13;42.83
61757;BME280;57225;61.460;24.060;2022-07-25T11:26:44;99671.06;;;26.46;42.95
61757;BME280;57225;61.460;24.060;2022-07-25T11:29:29;99669.56;;;27.02;43.64
61757;BME280;57225;61.460;24.060;2022-07-25T11:35:41;99663.97;;;26.63;43.43
61757;BME280;57225;61.460;24.060;2022-07-25T11:38:25;99666.84;;;27.21;43.31
61757;BME280;57225;61.460;24.060;2022-07-25T11:41:10;99666.84;;;27.21;42.69
61757;BME280;57225;61.460;24.060;2022-07-25T11:43:55;99654.28;;;26.89;44.19
61757;BME280;57225;61.460;24.060;2022-07-25T11:46:41;99659.81;;;26.64;44.94
61757;BME280;57225;61.460;24.060;2022-07-25T11:49:27;99657.03;;;26.42;45.18
61757;BME280;57225;61.460;24.060;2022-07-25T11:55:16;99659.13;;;26.36;45.44
61757;BME280;57225;61.460;24.060;2022-07-25T11:58:02;99649.53;;;26.33;45.50
61757;BME280;57225;61.460;24.060;2022-07-25T12:00:48;99648.03;;;25.77;45.73
61757;BME280;57225;61.460;24.060;2022-07-25T12:03:36;99632.16;;;26.09;45.92
61757;BME280;57225;61.460;24.060;2022-07-25T12:06:28;99633.09;;;26.51;45.74
61757;BME280;57225;61.460;24.060;2022-07-25T12:09:15;99630.59;;;27.35;45.90
61757;BME280;57225;61.460;24.060;2022-07-25T12:12:03;99623.97;;;27.86;43.03
61757;BME280;57225;61.460;24.060;2022-07-25T12:14:47;99619.34;;;28.02;42.56
61757;BME280;57225;61.460;24.060;2022-07-25T12:17:31;99621.22;;;26.99;43.28
61757;BME280;57225;61.460;24.060;2022-07-25T12:20:22;99610.44;;;26.64;44.21
61757;BME280;57225;61.460;24.060;2022-07-25T12:23:08;99612.97;;;26.78;44.41
61757;BME280;57225;61.460;24.060;2022-07-25T12:25:53;99618.56;;;26.43;45.66
61757;BME280;57225;61.460;24.060;2022-07-25T12:28:37;99625.91;;;26.11;46.25
61757;BME280;57225;61.460;24.060;2022-07-25T12:31:22;99618.94;;;25.89;47.32
61757;BME280;57225;61.460;24.060;2022-07-25T12:34:11;99612.72;;;25.63;47.73
61757;BME280;57225;61.460;24.060;2022-07-25T12:36:55;99615.81;;;25.32;48.28
61757;BME280;57225;61.460;24.060;2022-07-25T12:39:40;99623.50;;;24.92;49.47
61757;BME280;57225;61.460;24.060;2022-07-25T12:42:25;99621.06;;;24.68;50.09
61757;BME280;57225;61.460;24.060;2022-07-25T12:45:11;99610.28;;;24.35;51.35
61757;BME280;57225;61.460;24.060;2022-07-25T12:47:57;99617.91;;;24.07;51.76
61757;BME280;57225;61.460;24.060;2022-07-25T12:50:42;99624.25;;;23.91;53.42
61757;BME280;57225;61.460;24.060;2022-07-25T12:53:26;99624.66;;;23.78;53.61
61757;BME280;57225;61.460;24.060;2022-07-25T12:56:10;99618.44;;;23.74;54.22
61757;BME280;57225;61.460;24.060;2022-07-25T12:58:55;99625.44;;;23.79;53.90
61757;BME280;57225;61.460;24.060;2022-07-25T13:01:39;99619.22;;;23.75;53.60
61757;BME280;57225;61.460;24.060;2022-07-25T13:04:26;99613.91;;;23.56;54.32
61757;BME280;57225;61.460;24.060;2022-07-25T13:07:12;99623.44;;;23.53;53.68
61757;BME280;57225;61.460;24.060;2022-07-25T13:09:56;99607.41;;;23.50;54.55
61757;BME280;57225;61.460;24.060;2022-07-25T13:12:41;99606.13;;;23.51;54.12
61757;BME280;57225;61.460;24.060;2022-07-25T13:15:25;99610.22;;;23.82;52.78
61757;BME280;57225;61.460;24.060;2022-07-25T13:18:10;99611.38;;;24.43;52.06
61757;BME280;57225;61.460;24.060;2022-07-25T13:20:55;99595.09;;;24.55;50.81
61757;BME280;57225;61.460;24.060;2022-07-25T13:23:39;99604.13;;;24.42;50.49
61757;BME280;57225;61.460;24.060;2022-07-25T13:26:24;99600.31;;;24.62;50.99
61757;BME280;57225;61.460;24.060;2022-07-25T13:29:08;99596.50;;;24.82;50.42
61757;BME280;57225;61.460;24.060;2022-07-25T13:31:54;99592.69;;;24.96;49.48
61757;BME280;57225;61.460;24.060;2022-07-25T13:34:38;99583.53;;;24.81;50.26
61757;BME280;57225;61.460;24.060;2022-07-25T13:37:23;99581.28;;;25.13;49.56
61757;BME280;57225;61.460;24.060;2022-07-25T13:40:07;99582.06;;;25.13;49.88
61757;BME280;57225;61.460;24.060;2022-07-25T13:42:52;99583.63;;;25.03;49.37
61757;BME280;57225;61.460;24.060;2022-07-25T13:45:37;99569.63;;;25.28;49.19
61757;BME280;57225;61.460;24.060;2022-07-25T13:48:21;99565.00;;;25.58;49.56
61757;BME280;57225;61.460;24.060;2022-07-25T13:51:06;99566.78;;;25.61;48.15
61757;BME280;57225;61.460;24.060;2022-07-25T13:53:50;99559.75;;;25.06;49.10
61757;BME280;57225;61.460;24.060;2022-07-25T13:56:35;99569.38;;;25.31;48.96
61757;BME280;57225;61.460;24.060;2022-07-25T13:59:19;99559.00;;;25.34;48.97
61757;BME280;57225;61.460;24.060;2022-07-25T14:02:04;99550.69;;;25.13;49.74
61757;BME280;57225;61.460;24.060;2022-07-25T14:04:48;99561.50;;;24.81;51.20
61757;BME280;57225;61.460;24.060;2022-07-25T14:07:35;99558.69;;;24.98;50.86
61757;BME280;57225;61.460;24.060;2022-07-25T14:10:19;99554.84;;;25.07;51.14
61757;BME280;57225;61.460;24.060;2022-07-25T14:13:04;99539.00;;;25.00;49.76
61757;BME280;57225;61.460;24.060;2022-07-25T14:15:48;99539.53;;;24.99;48.91
61757;BME280;57225;61.460;24.060;2022-07-25T14:18:33;99543.94;;;25.11;50.36
61757;BME280;57225;61.460;24.060;2022-07-25T14:21:17;99545.78;;;25.25;49.61
61757;BME280;57225;61.460;24.060;2022-07-25T14:24:02;99535.06;;;24.70;49.61
61757;BME280;57225;61.460;24.060;2022-07-25T14:26:47;99522.38;;;24.82;49.68
61757;BME280;57225;61.460;24.060;2022-07-25T14:29:32;99529.06;;;24.62;49.75
61757;BME280;57225;61.460;24.060;2022-07-25T14:32:17;99535.56;;;24.79;51.16
61757;BME280;57225;61.460;24.060;2022-07-25T14:35:01;99527.34;;;24.98;51.37